Time;durP1;ratioP1;P1;durP2;ratioP2;P2;SDS_P1;SDS_P2;PMS_P1;PMS_P2;Temp;Humidity;BMP_temperature;BMP_pressure;BME280_temperature;BME280_humidity;BME280_pressure;Samples;Min_cycle;Max_cycle;Signal;HPM_P1;HPM_P2
2021/08/30 00:00:23;;;;;;;2.53;2.33;;;;;;;12.76;100.00;97736.44;5027652;28;20224;-68
2021/08/30 00:02:50;;;;;;;2.53;2.40;;;;;;;12.83;100.00;97734.69;5027060;28;20335;-68
2021/08/30 00:05:19;;;;;;;2.87;2.73;;;;;;;12.74;100.00;97737.47;5027258;28;20571;-68
2021/08/30 00:07:47;;;;;;;3.23;2.27;;;;;;;12.69;100.00;97741.66;5029872;28;20211;-68
2021/08/30 00:10:15;;;;;;;3.63;2.83;;;;;;;12.69;100.00;97734.53;5023188;28;20211;-68
2021/08/30 00:12:44;;;;;;;3.17;2.90;;;;;;;12.66;100.00;97737.53;5028104;28;20700;-68
2021/08/30 00:15:14;;;;;;;3.43;3.17;;;;;;;12.74;100.00;97728.63;5032241;28;20280;-68
2021/08/30 00:17:43;;;;;;;2.97;2.87;;;;;;;12.67;100.00;97728.53;5022395;28;20200;-70
2021/08/30 00:20:13;;;;;;;2.87;2.77;;;;;;;12.71;100.00;97740.47;5024223;28;20228;-70
2021/08/30 00:22:41;;;;;;;3.87;3.57;;;;;;;12.69;100.00;97731.03;5029729;28;20795;-70
2021/08/30 00:25:10;;;;;;;3.20;3.00;;;;;;;12.70;100.00;97727.34;5025840;28;20718;-70
2021/08/30 00:27:38;;;;;;;2.93;2.73;;;;;;;12.66;100.00;97732.22;5030632;28;20249;-69
2021/08/30 00:30:10;;;;;;;3.50;3.20;;;;;;;12.63;100.00;97734.44;5023200;28;20235;-70
2021/08/30 00:32:38;;;;;;;3.07;2.87;;;;;;;12.74;100.00;97734.78;5025934;28;20220;-70
2021/08/30 00:35:06;;;;;;;3.67;3.10;;;;;;;12.74;100.00;97725.97;5031655;28;20215;-70
2021/08/30 00:37:35;;;;;;;3.63;3.20;;;;;;;12.65;100.00;97729.75;5023090;28;20611;-69
2021/08/30 00:40:04;;;;;;;3.53;3.33;;;;;;;12.71;100.00;97727.19;5023397;28;20437;-70
2021/08/30 00:42:32;;;;;;;3.20;3.07;;;;;;;12.81;100.00;97720.75;5027927;28;20220;-69
2021/08/30 00:45:02;;;;;;;3.20;2.90;;;;;;;12.74;100.00;97716.19;5024498;28;20205;-69
2021/08/30 00:47:31;;;;;;;3.53;3.27;;;;;;;12.62;100.00;97722.94;5028680;28;20211;-69
2021/08/30 00:49:59;;;;;;;4.83;2.90;;;;;;;12.56;100.00;97707.75;5028775;28;20219;-70
2021/08/30 00:52:27;;;;;;;5.17;3.63;;;;;;;12.62;100.00;97717.63;5029052;28;20607;-69
2021/08/30 00:54:55;;;;;;;3.77;3.47;;;;;;;12.75;100.00;97709.00;5031472;28;20572;-70
2021/08/30 00:57:24;;;;;;;3.90;3.60;;;;;;;12.70;100.00;97704.28;5025736;28;20204;-70
2021/08/30 00:59:52;;;;;;;3.00;2.80;;;;;;;12.66;100.00;97710.94;5025457;28;20212;-70
2021/08/30 01:02:20;;;;;;;3.60;3.27;;;;;;;12.54;100.00;97699.13;5029888;28;20279;-70
2021/08/30 01:04:50;;;;;;;4.20;3.60;;;;;;;12.57;100.00;97707.56;5029149;28;20295;-70
2021/08/30 01:07:22;;;;;;;3.87;3.57;;;;;;;12.58;100.00;97706.56;5027891;28;20208;-68
2021/08/30 01:09:54;;;;;;;4.10;3.70;;;;;;;12.57;100.00;97702.25;5030847;28;20209;-70
2021/08/30 01:12:25;;;;;;;3.77;3.57;;;;;;;12.58;100.00;97700.41;5025518;28;20236;-69
2021/08/30 01:14:57;;;;;;;3.47;3.27;;;;;;;12.69;100.00;97696.47;5027445;28;20204;-69
2021/08/30 01:17:27;;;;;;;3.90;3.60;;;;;;;12.62;100.00;97690.25;5021690;28;20227;-69
2021/08/30 01:20:03;;;;;;;3.63;3.43;;;;;;;12.65;100.00;97693.34;5025814;28;20608;-69
2021/08/30 01:22:32;;;;;;;5.00;3.57;;;;;;;12.55;100.00;97690.16;5024316;28;20225;-70
2021/08/30 01:25:01;;;;;;;5.17;3.27;;;;;;;12.75;100.00;97682.44;5021378;28;20588;-69
2021/08/30 01:27:30;;;;;;;3.83;3.50;;;;;;;12.70;100.00;97688.31;5026831;28;20234;-69
2021/08/30 01:30:03;;;;;;;4.07;3.80;;;;;;;12.69;100.00;97686.66;5025637;28;20226;-69
2021/08/30 01:32:33;;;;;;;3.30;3.00;;;;;;;12.59;100.00;97675.47;5028256;28;20505;-69
2021/08/30 01:35:04;;;;;;;5.37;3.80;;;;;;;12.65;100.00;97682.72;5030497;28;20307;-69
2021/08/30 01:37:33;;;;;;;3.93;3.70;;;;;;;12.50;100.00;97673.94;5021060;28;20207;-69
2021/08/30 01:40:02;;;;;;;3.47;3.27;;;;;;;12.43;100.00;97677.34;5026537;28;20200;-70
2021/08/30 01:42:30;;;;;;;4.17;3.87;;;;;;;12.40;100.00;97683.00;5030837;28;20227;-69
2021/08/30 01:44:59;;;;;;;4.30;4.00;;;;;;;12.42;100.00;97674.84;5031939;28;20568;-69
2021/08/30 01:47:27;;;;;;;4.23;3.93;;;;;;;12.37;100.00;97675.41;5028997;28;20632;-69
2021/08/30 01:50:06;;;;;;;9.50;4.43;;;;;;;12.36;100.00;97671.09;5030608;28;20215;-69
2021/08/30 01:52:36;;;;;;;3.30;3.10;;;;;;;12.36;100.00;97665.78;5027047;28;20224;-69
2021/08/30 01:55:12;;;;;;;3.80;3.50;;;;;;;12.34;100.00;97666.97;5024909;28;20212;-69
2021/08/30 02:00:42;;;;;;;4.10;3.80;;;;;;;12.35;100.00;97665.97;5025776;28;21003;-69
2021/08/30 02:00:45;;;;;;;4.50;3.77;;;;;;;12.34;100.00;97659.84;5027578;28;20673;-69
2021/08/30 02:03:15;;;;;;;4.07;3.77;;;;;;;12.34;100.00;97656.34;5026063;28;20332;-69
2021/08/30 02:05:47;;;;;;;4.13;3.77;;;;;;;12.33;100.00;97649.38;5027985;28;20212;-69
2021/08/30 02:08:15;;;;;;;3.87;3.57;;;;;;;12.32;100.00;97651.22;5024859;28;20204;-69
2021/08/30 02:10:44;;;;;;;3.33;3.13;;;;;;;12.32;100.00;97650.38;5026729;28;20204;-69
2021/08/30 02:13:12;;;;;;;3.43;3.23;;;;;;;12.33;100.00;97655.53;5031607;28;20228;-68
2021/08/30 02:15:40;;;;;;;3.33;3.03;;;;;;;12.33;100.00;97647.56;5023629;28;20497;-71
2021/08/30 02:18:18;;;;;;;3.67;2.93;;;;;;;12.31;100.00;97649.56;5025415;28;20219;-74
2021/08/30 02:20:54;;;;;;;3.57;3.20;;;;;;;12.32;100.00;97648.56;5022916;28;20232;-71
2021/08/30 02:23:24;;;;;;;3.53;3.23;;;;;;;12.33;100.00;97650.22;5029366;28;20311;-72
2021/08/30 02:25:54;;;;;;;3.40;3.20;;;;;;;12.39;100.00;97648.63;5029538;28;20680;-73
2021/08/30 02:28:24;;;;;;;3.57;3.37;;;;;;;12.40;100.00;97652.94;5016460;28;20255;-72
2021/08/30 02:30:55;;;;;;;3.50;3.30;;;;;;;12.38;100.00;97647.00;5025894;28;20574;-74
2021/08/30 02:33:25;;;;;;;3.10;2.90;;;;;;;12.36;100.00;97644.53;5023187;28;20228;-72
2021/08/30 02:36:02;;;;;;;4.23;3.93;;;;;;;12.37;100.00;97632.91;5023195;28;20593;-70
2021/08/30 02:38:31;;;;;;;3.50;3.30;;;;;;;12.42;100.00;97627.84;5026985;28;20211;-70
2021/08/30 02:40:59;;;;;;;3.70;3.50;;;;;;;12.41;100.00;97626.19;5025232;28;20251;-69
2021/08/30 02:43:28;;;;;;;3.53;3.33;;;;;;;12.40;100.00;97632.53;5025793;28;20224;-69
2021/08/30 02:45:56;;;;;;;3.60;3.20;;;;;;;12.42;100.00;97630.50;5026433;28;20235;-70
2021/08/30 02:48:24;;;;;;;3.87;3.57;;;;;;;12.40;100.00;97627.22;5028551;28;21041;-69
2021/08/30 02:50:54;;;;;;;3.73;3.53;;;;;;;12.38;100.00;97628.38;5025080;28;20200;-70
2021/08/30 02:53:23;;;;;;;4.03;3.80;;;;;;;12.39;100.00;97633.53;5025192;28;20235;-69
2021/08/30 02:55:52;;;;;;;3.60;3.40;;;;;;;12.58;100.00;97632.13;5032344;28;20208;-71
2021/08/30 02:58:20;;;;;;;3.40;3.20;;;;;;;12.50;100.00;97624.28;5027157;28;20208;-69
2021/08/30 03:00:48;;;;;;;3.73;3.43;;;;;;;12.40;100.00;97624.56;5024516;28;20204;-69
2021/08/30 03:03:17;;;;;;;4.10;3.80;;;;;;;12.39;100.00;97630.03;5030244;28;20262;-69
2021/08/30 03:05:47;;;;;;;3.57;3.33;;;;;;;12.42;100.00;97621.69;5026570;28;20212;-69
2021/08/30 03:08:17;;;;;;;3.83;3.40;;;;;;;12.41;100.00;97625.38;5023215;28;20208;-69
2021/08/30 03:10:46;;;;;;;3.47;3.27;;;;;;;12.38;100.00;97626.56;5010438;28;20200;-69
2021/08/30 03:13:15;;;;;;;3.80;3.50;;;;;;;12.38;100.00;97626.56;5020848;28;20234;-69
2021/08/30 03:15:45;;;;;;;3.70;3.50;;;;;;;12.36;100.00;97614.47;5028044;28;20207;-69
2021/08/30 03:18:14;;;;;;;3.33;3.10;;;;;;;12.36;100.00;97612.66;5027176;28;20727;-69
2021/08/30 03:20:43;;;;;;;3.60;3.40;;;;;;;12.37;100.00;97626.75;5028888;28;20200;-69
2021/08/30 03:23:11;;;;;;;3.47;3.27;;;;;;;12.56;100.00;97628.84;5029539;28;20243;-69
2021/08/30 03:25:41;;;;;;;3.10;2.90;;;;;;;12.46;100.00;97625.63;5028074;28;20203;-68
2021/08/30 03:28:11;;;;;;;3.63;3.30;;;;;;;12.45;100.00;97630.13;5033547;28;20199;-69
2021/08/30 03:30:39;;;;;;;3.17;2.97;;;;;;;12.41;100.00;97631.50;5032491;28;20208;-69
2021/08/30 03:33:08;;;;;;;3.07;2.87;;;;;;;12.48;100.00;97633.44;5029188;28;20282;-69
2021/08/30 03:35:36;;;;;;;3.47;3.27;;;;;;;12.50;100.00;97642.03;5028216;28;20211;-69
2021/08/30 03:38:04;;;;;;;3.50;3.30;;;;;;;12.61;100.00;97635.44;5031087;28;20223;-69
2021/08/30 03:40:33;;;;;;;3.47;3.27;;;;;;;12.54;100.00;97635.34;5028996;28;20235;-69
2021/08/30 03:43:03;;;;;;;3.87;3.57;;;;;;;12.50;100.00;97642.88;5027335;28;20231;-69
2021/08/30 03:45:31;;;;;;;4.30;3.30;;;;;;;12.51;100.00;97646.34;5034117;28;20200;-69
2021/08/30 03:47:59;;;;;;;3.27;3.07;;;;;;;12.49;100.00;97643.84;5028406;28;20203;-69
2021/08/30 03:50:29;;;;;;;3.47;3.27;;;;;;;12.44;100.00;97647.09;5034113;28;20240;-69
2021/08/30 03:52:57;;;;;;;3.80;3.57;;;;;;;12.43;100.00;97653.41;5025373;28;20231;-69
2021/08/30 03:55:26;;;;;;;3.50;3.30;;;;;;;12.49;100.00;97648.38;5025545;28;20204;-69
2021/08/30 03:57:58;;;;;;;3.53;3.23;;;;;;;12.49;100.00;97651.84;5036002;28;20211;-69
2021/08/30 04:00:28;;;;;;;3.60;3.17;;;;;;;12.39;100.00;97646.81;5031074;28;21380;-69
2021/08/30 04:02:58;;;;;;;3.73;3.53;;;;;;;12.37;100.00;97653.31;5025713;28;20242;-69
2021/08/30 04:05:29;;;;;;;3.53;3.33;;;;;;;12.37;100.00;97653.31;5027043;28;20244;-68
2021/08/30 04:07:59;;;;;;;2.80;2.70;;;;;;;12.38;100.00;97658.47;5028793;28;20209;-69
2021/08/30 04:10:27;;;;;;;3.60;3.40;;;;;;;12.37;100.00;97662.13;5033022;28;20232;-68
2021/08/30 04:12:56;;;;;;;3.27;3.07;;;;;;;12.39;100.00;97662.75;5027438;28;20228;-66
2021/08/30 04:15:24;;;;;;;3.30;3.10;;;;;;;12.42;100.00;97667.72;5030947;28;20256;-67
2021/08/30 04:17:54;;;;;;;4.03;3.77;;;;;;;12.46;100.00;97670.81;5031395;28;20211;-67
2021/08/30 04:20:22;;;;;;;3.17;2.97;;;;;;;12.42;100.00;97674.84;5028442;28;20227;-66
2021/08/30 04:22:50;;;;;;;3.30;3.10;;;;;;;12.36;100.00;97668.44;5025388;28;20239;-67
2021/08/30 04:25:18;;;;;;;4.10;3.70;;;;;;;12.39;100.00;97676.06;5032159;28;20208;-66
2021/08/30 04:27:46;;;;;;;3.50;3.30;;;;;;;12.38;100.00;97669.09;5027473;28;20443;-66
2021/08/30 04:30:14;;;;;;;3.87;3.60;;;;;;;12.40;100.00;97668.88;5031484;28;20212;-66
2021/08/30 04:32:42;;;;;;;3.70;3.50;;;;;;;12.31;100.00;97676.13;5027347;28;20430;-66
2021/08/30 04:35:11;;;;;;;4.00;3.80;;;;;;;12.42;100.00;97680.16;5031041;28;20207;-67
2021/08/30 04:37:39;;;;;;;3.93;3.73;;;;;;;12.37;100.00;97678.06;5025919;28;20210;-68
2021/08/30 04:40:08;;;;;;;4.17;3.90;;;;;;;12.48;100.00;97681.25;5032876;28;20207;-66
2021/08/30 04:42:37;;;;;;;4.47;4.17;;;;;;;12.30;100.00;97685.94;5030092;28;20234;-68
2021/08/30 04:45:05;;;;;;;4.60;4.30;;;;;;;12.42;100.00;97690.78;5027114;28;20267;-66
2021/08/30 04:47:34;;;;;;;4.37;4.07;;;;;;;12.35;100.00;97693.38;5025993;28;20208;-66
2021/08/30 04:50:03;;;;;;;4.90;4.60;;;;;;;12.44;100.00;97696.75;5021910;28;20498;-67
2021/08/30 04:52:32;;;;;;;4.30;4.10;;;;;;;12.36;100.00;97692.38;5016145;28;20458;-67
2021/08/30 04:55:00;;;;;;;4.70;4.40;;;;;;;12.41;100.00;97692.63;5027709;28;20200;-65
2021/08/30 04:57:28;;;;;;;4.70;4.40;;;;;;;12.33;100.00;97694.56;5029708;28;20735;-66
2021/08/30 04:59:56;;;;;;;5.00;4.67;;;;;;;12.41;100.00;97703.25;5027341;28;20750;-66
2021/08/30 05:02:27;;;;;;;4.93;4.63;;;;;;;12.42;100.00;97701.41;5032169;28;20685;-67
2021/08/30 05:04:58;;;;;;;5.07;4.73;;;;;;;12.30;100.00;97701.88;5029837;28;20211;-66
2021/08/30 05:07:26;;;;;;;4.17;3.97;;;;;;;12.36;100.00;97703.00;5025004;28;20227;-65
2021/08/30 05:09:55;;;;;;;4.47;4.23;;;;;;;12.37;100.00;97703.81;5026844;28;20208;-66
2021/08/30 05:12:26;;;;;;;4.20;4.00;;;;;;;12.40;100.00;97704.28;5029337;28;20645;-65
2021/08/30 05:14:54;;;;;;;3.80;3.50;;;;;;;12.35;100.00;97706.66;5027475;28;20200;-64
2021/08/30 05:17:22;;;;;;;4.00;3.80;;;;;;;12.32;100.00;97704.38;5025492;28;20211;-65
2021/08/30 05:19:50;;;;;;;4.30;4.10;;;;;;;12.35;100.00;97700.50;5035322;28;20209;-66
2021/08/30 05:22:18;;;;;;;4.73;4.33;;;;;;;12.27;100.00;97704.91;5015541;28;20314;-67
2021/08/30 05:24:47;;;;;;;4.63;4.23;;;;;;;12.35;100.00;97708.47;5022594;28;20215;-66
2021/08/30 05:27:16;;;;;;;4.53;4.23;;;;;;;12.24;100.00;97707.09;5025736;28;20235;-66
2021/08/30 05:29:44;;;;;;;4.70;4.50;;;;;;;12.27;100.00;97707.56;5026292;28;20208;-66
2021/08/30 05:32:12;;;;;;;4.73;4.43;;;;;;;12.27;100.00;97709.38;5029687;28;20236;-65
2021/08/30 05:34:40;;;;;;;4.83;4.47;;;;;;;12.25;100.00;97712.22;5019409;28;20231;-66
2021/08/30 05:37:08;;;;;;;5.33;4.03;;;;;;;12.25;100.00;97714.03;5022360;28;20205;-65
2021/08/30 05:39:36;;;;;;;4.67;4.37;;;;;;;12.29;100.00;97716.16;5023343;28;20726;-66
2021/08/30 05:42:04;;;;;;;4.60;4.20;;;;;;;12.29;100.00;97718.00;5026523;28;20634;-65
2021/08/30 05:44:34;;;;;;;4.50;4.20;;;;;;;12.33;100.00;97716.66;5028685;28;20418;-67
2021/08/30 05:47:02;;;;;;;4.63;4.23;;;;;;;12.34;100.00;97712.13;5024901;28;20200;-66
2021/08/30 05:49:30;;;;;;;4.77;4.37;;;;;;;12.40;100.00;97722.03;5023618;28;20207;-66
2021/08/30 05:51:58;;;;;;;4.60;4.30;;;;;;;12.49;100.00;97714.81;5027748;28;20230;-65
2021/08/30 05:54:31;;;;;;;4.77;4.47;;;;;;;12.54;100.00;97709.75;5023640;28;20213;-66
2021/08/30 05:56:59;;;;;;;5.40;5.00;;;;;;;12.55;100.00;97722.03;5024714;28;20746;-65
2021/08/30 05:59:27;;;;;;;4.80;4.40;;;;;;;12.67;100.00;97717.91;5023498;28;20243;-66
2021/08/30 06:01:56;;;;;;;3.90;3.60;;;;;;;12.58;100.00;97714.53;5028411;28;20238;-67
2021/08/30 06:04:24;;;;;;;4.43;4.13;;;;;;;12.60;100.00;97719.66;5038728;28;20416;-70
2021/08/30 06:06:52;;;;;;;4.30;4.00;;;;;;;12.54;100.00;97715.06;5045965;28;20208;-70
2021/08/30 06:09:20;;;;;;;4.07;3.67;;;;;;;12.58;100.00;97714.53;5039737;28;20458;-67
2021/08/30 06:11:50;;;;;;;3.97;3.67;;;;;;;12.56;100.00;97711.25;5025684;28;20223;-68
2021/08/30 06:14:18;;;;;;;4.03;3.73;;;;;;;12.55;100.00;97714.91;5026774;28;20220;-68
2021/08/30 06:16:46;;;;;;;4.03;3.73;;;;;;;12.56;100.00;97711.25;5028224;28;20232;-68
2021/08/30 06:19:15;;;;;;;4.10;3.80;;;;;;;12.53;100.00;97724.91;5024266;28;20212;-68
2021/08/30 06:21:43;;;;;;;3.63;3.33;;;;;;;12.77;100.00;97716.81;5033625;28;20231;-68
2021/08/30 06:24:11;;;;;;;3.93;3.63;;;;;;;12.71;100.00;97721.88;5022084;28;20225;-68
2021/08/30 06:26:39;;;;;;;4.93;4.50;;;;;;;12.70;100.00;97711.41;5031038;28;20695;-69
2021/08/30 06:29:07;;;;;;;5.53;5.17;;;;;;;12.72;100.00;97717.38;5029062;28;20203;-68
2021/08/30 06:31:35;;;;;;;4.33;4.13;;;;;;;12.68;100.00;97716.91;5029618;28;20580;-68
2021/08/30 06:34:03;;;;;;;4.87;4.57;;;;;;;12.73;100.00;97719.84;5025316;28;20212;-68
2021/08/30 06:36:33;;;;;;;5.07;4.77;;;;;;;12.72;100.00;97717.38;5025958;28;20746;-68
2021/08/30 06:39:01;;;;;;;5.33;4.97;;;;;;;12.79;100.00;97718.28;5021126;28;20814;-68
2021/08/30 06:41:29;;;;;;;4.87;4.57;;;;;;;12.74;100.00;97728.63;5018531;28;20205;-68
2021/08/30 06:43:57;;;;;;;4.87;4.27;;;;;;;12.94;100.00;97731.56;5023111;28;20231;-68
2021/08/30 06:46:25;;;;;;;4.87;4.57;;;;;;;12.95;100.00;97733.19;5025202;28;20219;-67
2021/08/30 06:48:53;;;;;;;4.27;4.07;;;;;;;12.96;100.00;97731.38;5020056;28;20208;-67
2021/08/30 06:51:22;;;;;;;4.27;4.00;;;;;;;12.84;100.00;97742.47;5019260;28;20603;-67
2021/08/30 06:53:51;;;;;;;4.07;3.87;;;;;;;12.79;100.00;97750.19;5024144;28;20201;-68
2021/08/30 06:56:19;;;;;;;4.33;4.03;;;;;;;12.92;100.00;97741.56;5025665;28;20204;-67
2021/08/30 06:58:47;;;;;;;4.40;4.20;;;;;;;13.09;100.00;97738.69;5028882;28;20226;-67
2021/08/30 07:01:15;;;;;;;4.73;4.43;;;;;;;13.12;100.00;97735.66;5024496;28;20215;-67
2021/08/30 07:03:43;;;;;;;4.07;3.77;;;;;;;13.29;100.00;97741.59;5033458;28;20223;-68
2021/08/30 07:06:11;;;;;;;4.20;4.00;;;;;;;13.39;100.00;97741.25;5030962;28;20220;-68
2021/08/30 07:08:39;;;;;;;4.33;4.03;;;;;;;13.32;100.00;97742.03;5025726;28;20204;-67
2021/08/30 07:11:13;;;;;;;3.87;3.67;;;;;;;13.50;100.00;97747.97;5028601;28;20684;-67
2021/08/30 07:13:41;;;;;;;3.60;3.40;;;;;;;13.50;100.00;97743.50;5022497;28;20212;-68
2021/08/30 07:16:09;;;;;;;4.13;3.80;;;;;;;13.40;100.00;97743.75;5020862;28;20208;-67
2021/08/30 07:18:37;;;;;;;3.40;3.20;;;;;;;13.34;100.00;97756.97;5023323;28;20208;-68
2021/08/30 07:21:04;;;;;;;2.97;2.87;;;;;;;13.39;100.00;97744.78;5024100;28;20702;-68
2021/08/30 07:23:35;;;;;;;3.93;3.53;;;;;;;13.42;100.00;97755.06;5030061;28;20231;-67
2021/08/30 07:26:02;;;;;;;3.67;3.47;;;;;;;13.37;100.00;97761.91;5034382;28;20602;-68
2021/08/30 07:28:32;;;;;;;3.43;3.17;;;;;;;13.24;100.00;97757.28;5031512;28;20239;-68
2021/08/30 07:31:00;;;;;;;3.87;3.67;;;;;;;13.48;100.00;97761.50;5027266;28;20650;-67
2021/08/30 07:33:28;;;;;;;3.80;3.60;;;;;;;13.58;100.00;97759.34;5025827;28;20628;-68
2021/08/30 07:35:56;;;;;;;3.50;3.30;;;;;;;13.76;100.00;97750.06;5019737;28;20204;-68
2021/08/30 07:38:24;;;;;;;3.50;3.30;;;;;;;13.73;100.00;97767.28;5021555;28;20223;-68
2021/08/30 07:40:52;;;;;;;3.50;3.30;;;;;;;13.84;100.00;97762.44;5023033;28;20227;-69
2021/08/30 07:43:20;;;;;;;3.43;3.20;;;;;;;13.83;100.00;97769.63;5032866;28;20856;-68
2021/08/30 07:45:51;;;;;;;3.10;3.00;;;;;;;13.91;100.00;97767.84;5027650;28;20200;-68
2021/08/30 07:48:20;;;;;;;3.07;2.97;;;;;;;13.86;100.00;97766.56;5022153;28;20212;-70
2021/08/30 07:50:50;;;;;;;3.33;2.73;;;;;;;13.91;100.00;97762.50;5030306;28;20348;-65
2021/08/30 07:53:19;;;;;;;2.60;2.50;;;;;;;13.88;100.00;97769.03;5022383;28;20315;-66
2021/08/30 07:55:48;;;;;;;2.30;2.20;;;;;;;13.89;100.00;97762.69;5030824;28;20205;-65
2021/08/30 07:58:16;;;;;;;2.10;2.00;;;;;;;14.02;100.00;97777.97;5021801;28;20204;-69
2021/08/30 08:00:45;;;;;;;2.63;2.43;;;;;;;14.06;100.00;97773.91;5026010;28;20203;-69
2021/08/30 08:03:14;;;;;;;5.30;2.50;;;;;;;14.21;100.00;97775.69;5026977;28;20661;-68
2021/08/30 08:05:43;;;;;;;2.37;2.27;;;;;;;13.99;100.00;97773.84;5031613;28;20246;-69
2021/08/30 08:08:11;;;;;;;1.83;1.77;;;;;;;14.01;100.00;97779.78;5027026;28;20738;-69
2021/08/30 08:10:39;;;;;;;1.80;1.80;;;;;;;13.85;100.00;97791.56;5028069;28;20207;-69
2021/08/30 08:13:07;;;;;;;1.60;1.60;;;;;;;14.15;100.00;97790.59;5028759;28;20224;-69
2021/08/30 08:15:35;;;;;;;2.40;2.30;;;;;;;14.01;100.00;97786.97;5027643;28;20208;-69
2021/08/30 08:18:04;;;;;;;2.30;2.20;;;;;;;14.11;100.00;97786.66;5025356;28;20208;-69
2021/08/30 08:20:34;;;;;;;2.20;2.00;;;;;;;14.30;100.00;97788.66;5026535;28;20581;-69
2021/08/30 08:23:03;;;;;;;1.80;1.60;;;;;;;14.40;100.00;97801.66;5027257;28;20307;-69
2021/08/30 08:25:31;;;;;;;1.70;1.60;;;;;;;14.21;100.00;97799.66;5030309;28;20258;-69
2021/08/30 08:28:03;;;;;;;1.57;1.53;;;;;;;14.31;100.00;97803.63;5025796;28;20199;-69
2021/08/30 08:30:31;;;;;;;2.17;2.07;;;;;;;14.30;100.00;97807.31;5022743;28;20728;-69
2021/08/30 08:32:59;;;;;;;2.27;2.17;;;;;;;14.21;100.00;97813.81;5032242;28;20395;-69
2021/08/30 08:35:28;;;;;;;1.80;1.70;;;;;;;14.06;100.00;97826.38;5023651;28;20196;-69
2021/08/30 08:37:57;;;;;;;2.10;2.00;;;;;;;13.96;100.00;97824.03;5032813;28;20211;-70
2021/08/30 08:40:25;;;;;;;2.57;2.37;;;;;;;13.78;100.00;97835.13;5024928;28;20773;-69
2021/08/30 08:42:53;;;;;;;2.60;2.50;;;;;;;13.67;100.00;97831.94;5021643;28;20486;-70
2021/08/30 08:45:21;;;;;;;2.90;2.80;;;;;;;13.49;100.00;97837.66;5028786;28;20235;-69
2021/08/30 08:47:49;;;;;;;3.13;2.70;;;;;;;13.53;100.00;97835.44;5021404;28;20208;-70
2021/08/30 08:50:20;;;;;;;2.67;2.57;;;;;;;13.57;100.00;97842.03;5028042;28;20228;-70
2021/08/30 08:52:48;;;;;;;2.60;2.50;;;;;;;13.67;100.00;97844.41;5032884;28;20220;-69
2021/08/30 08:55:17;;;;;;;2.90;2.80;;;;;;;13.83;100.00;97849.53;5028866;28;20208;-69
2021/08/30 08:57:45;;;;;;;2.70;2.50;;;;;;;13.81;100.00;97838.22;5028814;28;20208;-69
2021/08/30 09:00:15;;;;;;;2.43;2.33;;;;;;;13.92;100.00;97852.06;5026176;28;20207;-70
2021/08/30 09:02:46;;;;;;;2.30;2.20;;;;;;;13.72;100.00;97860.66;5025623;28;20228;-69
2021/08/30 09:05:22;;;;;;;2.17;2.07;;;;;;;13.60;100.00;97857.63;5027535;28;20226;-70
2021/08/30 09:07:50;;;;;;;2.10;2.00;;;;;;;13.43;100.00;97862.34;5030460;28;20429;-69
2021/08/30 09:10:24;;;;;;;2.23;2.13;;;;;;;13.59;100.00;97854.16;5029652;28;20215;-69
2021/08/30 09:13:03;;;;;;;2.17;2.07;;;;;;;13.70;100.00;97865.34;5030225;28;20227;-69
2021/08/30 09:15:31;;;;;;;2.57;2.47;;;;;;;13.74;100.00;97867.44;5029908;28;20728;-70
2021/08/30 09:17:59;;;;;;;1.70;1.53;;;;;;;13.91;100.00;97861.06;5029289;28;20204;-70
2021/08/30 09:20:29;;;;;;;2.10;2.00;;;;;;;14.14;100.00;97867.03;5030166;28;20424;-69
2021/08/30 09:22:57;;;;;;;1.80;1.70;;;;;;;14.01;100.00;97861.56;5022594;28;20367;-70
2021/08/30 09:25:27;;;;;;;2.10;1.90;;;;;;;14.11;100.00;97871.94;5018560;28;20224;-70
2021/08/30 09:27:55;;;;;;;2.43;2.33;;;;;;;14.28;100.00;97872.50;5031526;28;20216;-70
2021/08/30 09:30:26;;;;;;;2.33;2.17;;;;;;;14.52;100.00;97867.78;5027047;28;20212;-70
2021/08/30 09:32:54;;;;;;;1.97;1.97;;;;;;;14.65;100.00;97870.56;5030854;28;20228;-70
2021/08/30 09:35:22;;;;;;;2.67;1.57;;;;;;;15.15;100.00;97867.84;5025156;28;20214;-70
2021/08/30 09:37:50;;;;;;;1.90;1.80;;;;;;;15.35;100.00;97853.78;5029837;28;20363;-70
2021/08/30 09:40:20;;;;;;;1.77;1.50;;;;;;;15.54;100.00;97857.56;5028337;28;20216;-70
2021/08/30 09:42:51;;;;;;;1.80;1.70;;;;;;;15.87;100.00;97858.69;5021073;28;20301;-70
2021/08/30 09:45:21;;;;;;;2.53;1.37;;;;;;;15.45;100.00;97854.22;5028130;28;20298;-70
2021/08/30 09:47:51;;;;;;;1.40;1.40;;;;;;;15.38;100.00;97855.25;5031913;28;20215;-70
2021/08/30 09:50:19;;;;;;;1.23;0.80;;;;;;;15.41;100.00;97855.66;5049045;28;20188;-70
2021/08/30 09:52:47;;;;;;;1.57;1.03;;;;;;;15.55;100.00;97861.06;5043519;28;20224;-70
2021/08/30 09:55:15;;;;;;;1.17;1.17;;;;;;;15.52;100.00;97854.25;5024604;28;20208;-70
2021/08/30 09:57:49;;;;;;;1.23;0.87;;;;;;;15.33;100.00;97853.16;5027283;28;20204;-70
2021/08/30 10:00:19;;;;;;;0.90;0.90;;;;;;;15.36;100.00;97855.44;5025334;28;20212;-70
2021/08/30 10:02:48;;;;;;;0.90;0.90;;;;;;;15.54;100.00;97854.88;5021815;28;20235;-70
2021/08/30 10:05:17;;;;;;;1.23;1.23;;;;;;;15.70;100.00;97844.88;5030129;28;20250;-70
2021/08/30 10:07:46;;;;;;;0.90;0.90;;;;;;;16.15;100.00;97852.41;5025925;28;20216;-70
2021/08/30 10:10:15;;;;;;;0.77;0.77;;;;;;;16.28;100.00;97856.94;5024093;28;20219;-70
2021/08/30 10:12:43;;;;;;;0.80;0.80;;;;;;;16.48;100.00;97855.13;5027876;28;20228;-71
2021/08/30 10:15:13;;;;;;;0.87;0.87;;;;;;;16.52;100.00;97844.81;5032007;28;20235;-70
2021/08/30 10:17:47;;;;;;;0.93;0.80;;;;;;;16.62;100.00;97849.75;5026456;28;20212;-70
2021/08/30 10:20:18;;;;;;;0.90;0.90;;;;;;;16.79;100.00;97845.63;5026507;28;20215;-70
2021/08/30 10:22:56;;;;;;;1.30;0.97;;;;;;;16.65;100.00;97849.34;5027616;28;20412;-70
2021/08/30 10:25:25;;;;;;;0.90;0.90;;;;;;;16.70;100.00;97857.56;5024915;28;20278;-70
2021/08/30 10:27:58;;;;;;;0.50;0.50;;;;;;;16.71;100.00;97853.88;5025041;28;20212;-70
2021/08/30 10:30:26;;;;;;;0.60;0.60;;;;;;;16.66;100.00;97856.34;5023234;28;20208;-70
2021/08/30 10:32:57;;;;;;;0.60;0.60;;;;;;;16.60;100.00;97855.31;5029121;28;20364;-70
2021/08/30 10:35:27;;;;;;;0.50;0.50;;;;;;;16.74;100.00;97852.66;5026500;28;20660;-70
2021/08/30 10:37:59;;;;;;;0.60;0.60;;;;;;;16.81;100.00;97852.63;5026620;28;20352;-70
2021/08/30 10:40:29;;;;;;;0.60;0.60;;;;;;;16.91;100.00;97863.75;5019597;28;20201;-70
2021/08/30 10:43:03;;;;;;;0.73;0.73;;;;;;;17.54;100.00;97864.22;5020600;28;20227;-70
2021/08/30 10:45:33;;;;;;;0.60;0.60;;;;;;;18.25;100.00;97850.88;5030365;28;20230;-70
2021/08/30 10:48:05;;;;;;;1.00;0.80;;;;;;;17.82;100.00;97857.72;5025929;28;20208;-70
2021/08/30 10:50:38;;;;;;;1.30;1.20;;;;;;;17.53;100.00;97859.91;5020654;28;20238;-70
2021/08/30 10:53:08;;;;;;;2.93;1.00;;;;;;;16.89;100.00;97861.25;5028886;28;20227;-66
2021/08/30 10:55:41;;;;;;;1.23;0.90;;;;;;;16.72;100.00;97865.41;5021723;28;20204;-67
2021/08/30 10:58:17;;;;;;;1.67;0.80;;;;;;;16.42;100.00;97865.81;5020650;28;20215;-67
2021/08/30 11:00:47;;;;;;;1.07;1.07;;;;;;;16.38;100.00;97864.56;5027486;28;20208;-66
2021/08/30 11:03:30;;;;;;;1.27;0.83;;;;;;;16.43;100.00;97864.78;5024398;28;20347;-66
2021/08/30 11:06:03;;;;;;;0.90;0.90;;;;;;;16.62;100.00;97861.28;5032697;28;20943;-64
2021/08/30 11:08:32;;;;;;;1.90;1.00;;;;;;;16.43;100.00;97862.09;5021672;28;20211;-66
2021/08/30 11:11:10;;;;;;;1.40;1.30;;;;;;;16.42;100.00;97866.63;5024553;28;20204;-67
2021/08/30 11:13:39;;;;;;;1.07;1.07;;;;;;;16.16;100.00;97862.91;5028693;28;20363;-66
2021/08/30 11:16:21;;;;;;;0.90;0.90;;;;;;;16.23;100.00;97864.75;5025592;28;20228;-66
2021/08/30 11:18:59;;;;;;;0.83;0.80;;;;;;;16.11;100.00;97862.69;5026922;28;20200;-66
2021/08/30 11:21:46;;;;;;;1.00;1.00;;;;;;;16.21;100.00;97872.97;5020604;28;20204;-65
2021/08/30 11:24:29;;;;;;;1.13;0.93;;;;;;;16.27;100.00;97868.66;5024622;28;20204;-66
2021/08/30 11:27:00;;;;;;;0.80;0.80;;;;;;;15.98;100.00;97870.66;5023609;28;20216;-67
2021/08/30 11:29:28;;;;;;;1.17;1.10;;;;;;;15.93;100.00;97876.63;5023038;28;20211;-68
2021/08/30 11:31:56;;;;;;;1.00;1.00;;;;;;;15.97;100.00;97877.03;5027568;28;20254;-68
2021/08/30 11:34:31;;;;;;;0.87;0.87;;;;;;;16.11;100.00;97873.38;5031462;28;20201;-64